Time;durP1;ratioP1;P1;durP2;ratioP2;P2;SDS_P1;SDS_P2;PMS_P1;PMS_P2;Temp;Humidity;BMP_temperature;BMP_pressure;BME280_temperature;BME280_humidity;BME280_pressure;Samples;Min_cycle;Max_cycle;Signal;HPM_P1;HPM_P2
2020/12/06 00:02:10;;;;;;;519.47;85.18;;;1.60;99.90;;;;;;5026227;28;20042;-76
2020/12/06 00:04:37;;;;;;;289.42;72.82;;;1.60;99.90;;;;;;5028580;28;20084;-76
2020/12/06 00:07:04;;;;;;;273.95;70.13;;;1.70;99.90;;;;;;5028665;28;20077;-76
2020/12/06 00:09:31;;;;;;;321.67;74.57;;;1.70;99.90;;;;;;5028228;28;20144;-74
2020/12/06 00:11:58;;;;;;;235.73;64.07;;;1.70;99.90;;;;;;5028215;28;20136;-74
2020/12/06 00:14:25;;;;;;;206.02;59.50;;;1.70;99.90;;;;;;5011388;28;20073;-74
2020/12/06 00:16:52;;;;;;;284.85;71.53;;;1.80;99.90;;;;;;5027161;28;20123;-76
2020/12/06 00:19:18;;;;;;;276.10;65.13;;;1.80;99.90;;;;;;5032557;28;20868;-75
2020/12/06 00:21:45;;;;;;;225.52;58.35;;;1.80;99.90;;;;;;5048544;28;20120;-74
2020/12/06 00:24:12;;;;;;;259.83;66.50;;;1.80;99.90;;;;;;5048081;28;20106;-76
2020/12/06 00:26:38;;;;;;;452.83;80.15;;;1.80;99.90;;;;;;5048183;28;20127;-75
2020/12/06 00:29:05;;;;;;;236.13;62.88;;;1.80;99.90;;;;;;5048723;28;20124;-74
2020/12/06 00:31:31;;;;;;;365.10;71.43;;;1.80;99.90;;;;;;5046572;28;20122;-74
2020/12/06 00:33:58;;;;;;;448.90;78.00;;;1.80;99.90;;;;;;5048391;28;20068;-75
2020/12/06 00:36:24;;;;;;;321.70;71.68;;;1.70;99.90;;;;;;5048504;28;20049;-77
2020/12/06 00:38:50;;;;;;;299.08;68.22;;;1.70;99.90;;;;;;5049456;28;20132;-74
2020/12/06 00:41:18;;;;;;;255.13;63.70;;;1.70;99.90;;;;;;5051867;28;20099;-75
2020/12/06 00:43:44;;;;;;;270.88;62.88;;;1.70;99.90;;;;;;5033625;28;20154;-74
2020/12/06 00:46:11;;;;;;;243.90;57.63;;;1.70;99.90;;;;;;5050750;28;20044;-74
2020/12/06 00:48:38;;;;;;;264.92;59.05;;;1.80;99.90;;;;;;5051690;28;20132;-75
2020/12/06 00:51:05;;;;;;;274.48;60.47;;;1.80;99.90;;;;;;5052484;28;20128;-74
2020/12/06 00:53:31;;;;;;;280.33;58.10;;;1.80;99.90;;;;;;5051974;28;20124;-74
2020/12/06 00:55:57;;;;;;;254.48;59.65;;;1.80;99.90;;;;;;5051138;28;20175;-74
2020/12/06 00:58:24;;;;;;;254.40;56.97;;;1.80;99.90;;;;;;5051950;28;20518;-75
2020/12/06 01:00:50;;;;;;;241.43;57.30;;;1.80;99.90;;;;;;5043564;28;20141;-75
2020/12/06 01:03:16;;;;;;;221.10;55.22;;;1.80;99.90;;;;;;5037261;28;20144;-74
2020/12/06 01:05:43;;;;;;;264.42;58.92;;;1.90;99.90;;;;;;5051535;28;20060;-74
2020/12/06 01:08:09;;;;;;;213.80;54.78;;;1.80;99.90;;;;;;5051606;28;20072;-73
2020/12/06 01:10:35;;;;;;;151.07;47.92;;;1.70;99.90;;;;;;5051426;28;20108;-74
2020/12/06 01:13:03;;;;;;;243.98;55.13;;;1.70;99.90;;;;;;5051537;28;20086;-75
2020/12/06 01:15:29;;;;;;;170.70;48.97;;;1.80;99.90;;;;;;5050801;28;20115;-74
2020/12/06 01:17:55;;;;;;;207.38;52.58;;;1.80;99.90;;;;;;5051071;28;20129;-75
2020/12/06 01:20:22;;;;;;;507.92;67.15;;;1.80;99.90;;;;;;5038381;28;20153;-74
2020/12/06 01:22:48;;;;;;;627.92;80.60;;;1.80;99.90;;;;;;5031291;28;20067;-74
2020/12/06 01:25:14;;;;;;;537.67;83.03;;;1.80;99.90;;;;;;5031075;28;20081;-74
2020/12/06 01:27:41;;;;;;;325.15;67.10;;;1.80;99.90;;;;;;5030396;28;20500;-74
2020/12/06 01:30:08;;;;;;;245.10;62.53;;;1.70;99.90;;;;;;5030734;28;20815;-75
2020/12/06 01:32:34;;;;;;;167.52;53.20;;;1.80;99.90;;;;;;5031078;28;20124;-74
2020/12/06 01:35:02;;;;;;;255.48;59.13;;;1.80;99.90;;;;;;5030477;28;20559;-75
2020/12/06 01:37:29;;;;;;;170.32;47.85;;;1.80;99.90;;;;;;5030867;28;20044;-74
2020/12/06 01:39:56;;;;;;;214.60;52.17;;;1.90;99.90;;;;;;5030809;28;20224;-75
2020/12/06 01:42:23;;;;;;;268.90;55.33;;;1.90;99.90;;;;;;5030697;28;20092;-75
2020/12/06 01:45:02;;;;;;;171.35;45.28;;;1.90;99.90;;;;;;5030624;28;20056;-76
2020/12/06 01:47:30;;;;;;;186.73;48.33;;;1.90;99.90;;;;;;5030384;28;20050;-74
2020/12/06 01:49:57;;;;;;;204.63;50.83;;;1.90;99.90;;;;;;5028664;28;20129;-75
2020/12/06 01:52:26;;;;;;;205.30;52.13;;;1.90;99.90;;;;;;5030721;28;20159;-78
2020/12/06 01:54:53;;;;;;;182.75;47.75;;;1.90;99.90;;;;;;5012799;28;20149;-74
2020/12/06 01:57:19;;;;;;;256.45;52.90;;;1.90;99.90;;;;;;5030508;28;20077;-75
2020/12/06 01:59:46;;;;;;;233.25;50.45;;;1.90;99.90;;;;;;5030356;28;20180;-76
2020/12/06 02:02:14;;;;;;;237.65;49.88;;;1.90;99.90;;;;;;5029698;28;20049;-75
2020/12/06 02:04:41;;;;;;;120.53;41.60;;;1.80;99.90;;;;;;5030644;28;20515;-74
2020/12/06 02:07:08;;;;;;;205.55;49.30;;;1.90;99.90;;;;;;5030232;28;20459;-76
2020/12/06 02:09:34;;;;;;;220.60;48.40;;;1.90;99.90;;;;;;5030326;28;20049;-75
2020/12/06 02:12:07;;;;;;;162.25;44.92;;;1.90;99.90;;;;;;5030038;28;20124;-76
2020/12/06 02:14:33;;;;;;;152.43;43.53;;;1.90;99.90;;;;;;5013365;28;20088;-75
2020/12/06 02:17:00;;;;;;;143.55;44.30;;;1.90;99.90;;;;;;5029495;28;20468;-76
2020/12/06 02:19:26;;;;;;;163.07;46.40;;;1.90;99.90;;;;;;5030508;28;20112;-75
2020/12/06 02:21:52;;;;;;;181.88;49.05;;;1.80;99.90;;;;;;5030208;28;20063;-75
2020/12/06 02:24:19;;;;;;;186.90;47.92;;;1.80;99.90;;;;;;5029553;28;20093;-74
2020/12/06 02:26:47;;;;;;;159.65;46.75;;;1.90;99.90;;;;;;5029344;28;20152;-74
2020/12/06 02:29:14;;;;;;;186.95;50.35;;;1.80;99.90;;;;;;5029962;28;20120;-74
2020/12/06 02:31:41;;;;;;;258.70;57.97;;;1.90;99.90;;;;;;5028605;28;20456;-74
2020/12/06 02:34:09;;;;;;;209.98;52.47;;;1.90;99.90;;;;;;5029061;28;20099;-75
2020/12/06 02:36:36;;;;;;;250.77;56.70;;;1.80;99.90;;;;;;5030160;28;20073;-74
2020/12/06 02:39:05;;;;;;;215.05;51.40;;;1.80;99.90;;;;;;5029955;28;20068;-75
2020/12/06 02:41:38;;;;;;;219.15;56.88;;;1.70;99.90;;;;;;5030138;28;20076;-74
2020/12/06 02:44:06;;;;;;;184.68;51.55;;;1.70;99.90;;;;;;5026136;28;20049;-75
2020/12/06 02:46:33;;;;;;;205.52;54.35;;;1.70;99.90;;;;;;5029123;28;20132;-74
2020/12/06 02:49:00;;;;;;;247.55;56.65;;;1.70;99.90;;;;;;5029537;28;20046;-76
2020/12/06 02:51:27;;;;;;;198.20;52.05;;;1.70;99.90;;;;;;5028774;28;20104;-76
2020/12/06 02:53:53;;;;;;;186.73;52.13;;;1.80;99.90;;;;;;5029657;28;20422;-74
2020/12/06 02:56:20;;;;;;;187.13;52.78;;;1.80;99.90;;;;;;5029288;28;20077;-74
2020/12/06 02:58:46;;;;;;;195.02;52.85;;;1.80;99.90;;;;;;5029526;28;20412;-74
2020/12/06 03:01:13;;;;;;;203.80;54.03;;;1.80;99.90;;;;;;5020818;28;20512;-74
2020/12/06 03:03:39;;;;;;;182.80;50.40;;;1.90;99.90;;;;;;5029065;28;20088;-75
2020/12/06 03:06:07;;;;;;;170.18;48.83;;;1.90;99.90;;;;;;5029765;28;20145;-79
2020/12/06 03:08:34;;;;;;;185.38;51.35;;;1.90;99.90;;;;;;5029526;28;20088;-74
2020/12/06 03:11:00;;;;;;;161.60;48.97;;;1.90;99.90;;;;;;5029313;28;20120;-75
2020/12/06 03:13:27;;;;;;;195.68;53.38;;;1.90;99.90;;;;;;5028861;28;20113;-78
2020/12/06 03:15:53;;;;;;;194.02;52.70;;;1.90;99.90;;;;;;5028610;28;20125;-74
2020/12/06 03:18:20;;;;;;;129.38;46.65;;;1.90;99.90;;;;;;5028790;28;20164;-74
2020/12/06 03:20:46;;;;;;;204.45;53.03;;;1.90;99.90;;;;;;5029309;28;20053;-74
2020/12/06 03:23:12;;;;;;;176.95;52.00;;;1.90;99.90;;;;;;5029319;28;20477;-74
2020/12/06 03:25:39;;;;;;;151.43;44.50;;;1.90;99.90;;;;;;5028309;28;20148;-75
2020/12/06 03:28:05;;;;;;;194.00;49.33;;;1.90;99.90;;;;;;5027743;28;20140;-74
2020/12/06 03:30:32;;;;;;;192.63;49.10;;;1.90;99.90;;;;;;5024425;28;20135;-75
2020/12/06 03:32:58;;;;;;;184.77;49.15;;;1.90;99.90;;;;;;5028609;28;20164;-75
2020/12/06 03:35:24;;;;;;;135.77;44.05;;;1.90;99.90;;;;;;5028703;28;20045;-75
2020/12/06 03:37:51;;;;;;;143.90;44.65;;;1.90;99.90;;;;;;5027740;28;20073;-75
2020/12/06 03:40:17;;;;;;;187.40;48.10;;;1.90;99.90;;;;;;5020308;28;20107;-75
2020/12/06 03:42:43;;;;;;;133.10;44.38;;;1.90;99.90;;;;;;5028722;28;20212;-75
2020/12/06 03:45:10;;;;;;;173.32;46.05;;;1.90;99.90;;;;;;5028221;28;20838;-77
2020/12/06 03:47:37;;;;;;;131.65;43.53;;;1.90;99.90;;;;;;5028252;28;20080;-79
2020/12/06 03:50:03;;;;;;;181.75;46.85;;;1.90;99.90;;;;;;5029079;28;20140;-75
2020/12/06 03:52:31;;;;;;;168.40;46.60;;;1.90;99.90;;;;;;5029028;28;20046;-75
2020/12/06 03:54:58;;;;;;;112.75;42.03;;;1.90;99.90;;;;;;5028597;28;20127;-75
2020/12/06 03:57:24;;;;;;;123.63;43.78;;;2.00;99.90;;;;;;5028617;28;20549;-75
2020/12/06 03:59:50;;;;;;;104.78;41.67;;;2.00;99.90;;;;;;5027867;28;20083;-76
2020/12/06 04:02:17;;;;;;;147.32;46.25;;;2.00;99.90;;;;;;5014410;28;20157;-75
2020/12/06 04:04:44;;;;;;;120.45;42.38;;;2.00;99.90;;;;;;5020751;28;20143;-74
2020/12/06 04:07:10;;;;;;;156.52;46.38;;;2.00;99.90;;;;;;5028233;28;20042;-75
2020/12/06 04:09:36;;;;;;;149.35;48.88;;;2.00;99.90;;;;;;5028690;28;20213;-80
2020/12/06 04:12:03;;;;;;;162.95;48.38;;;2.00;99.90;;;;;;5027478;28;20096;-75
2020/12/06 04:14:29;;;;;;;152.68;47.22;;;2.00;99.90;;;;;;5031309;28;20075;-74
2020/12/06 04:16:55;;;;;;;142.13;48.53;;;1.90;99.90;;;;;;5031822;28;20048;-74
2020/12/06 04:19:21;;;;;;;186.30;55.42;;;2.00;99.90;;;;;;5025195;28;20416;-75
2020/12/06 04:21:48;;;;;;;138.60;48.22;;;2.00;99.90;;;;;;5032401;28;20411;-74
2020/12/06 04:24:15;;;;;;;131.25;48.05;;;2.00;99.90;;;;;;5032029;28;20095;-76
2020/12/06 04:26:41;;;;;;;176.85;51.50;;;2.00;99.90;;;;;;5032302;28;20128;-75
2020/12/06 04:29:08;;;;;;;187.70;56.10;;;2.00;99.90;;;;;;5032264;28;20540;-76
2020/12/06 04:31:35;;;;;;;198.10;58.00;;;2.00;99.90;;;;;;5031363;28;20482;-75
2020/12/06 04:34:02;;;;;;;201.35;59.97;;;2.00;99.90;;;;;;5030729;28;20045;-77
2020/12/06 04:36:28;;;;;;;226.73;60.60;;;1.90;99.90;;;;;;5032375;28;20041;-75
2020/12/06 04:38:55;;;;;;;211.48;61.15;;;1.90;99.90;;;;;;5031908;28;20073;-75
2020/12/06 04:41:28;;;;;;;186.40;56.10;;;1.90;99.90;;;;;;5031869;28;20377;-75
2020/12/06 04:43:56;;;;;;;186.40;56.17;;;1.90;99.90;;;;;;5032199;28;20052;-75
2020/12/06 04:46:26;;;;;;;169.70;55.08;;;1.90;99.90;;;;;;5031342;28;20481;-75
2020/12/06 04:48:59;;;;;;;180.93;54.58;;;1.90;99.90;;;;;;5032514;28;20053;-75
2020/12/06 04:51:28;;;;;;;184.23;53.97;;;1.90;99.90;;;;;;5032117;28;20053;-76
2020/12/06 04:54:03;;;;;;;193.75;54.35;;;1.90;99.90;;;;;;5031608;28;20045;-76
2020/12/06 04:56:30;;;;;;;159.82;51.53;;;1.90;99.90;;;;;;5031341;28;20128;-75
2020/12/06 04:59:02;;;;;;;188.52;55.20;;;1.90;99.90;;;;;;5032115;28;20124;-76
2020/12/06 05:01:37;;;;;;;187.77;54.92;;;1.90;99.90;;;;;;5031032;28;20559;-75
2020/12/06 05:04:14;;;;;;;174.48;53.28;;;1.90;99.90;;;;;;5032116;28;20427;-79
2020/12/06 05:06:42;;;;;;;173.63;51.95;;;1.80;99.90;;;;;;5031300;28;20057;-75
2020/12/06 05:09:10;;;;;;;164.38;51.17;;;1.80;99.90;;;;;;5031622;28;20052;-75
2020/12/06 05:11:39;;;;;;;190.70;55.13;;;1.80;99.90;;;;;;5030907;28;20041;-79
2020/12/06 05:14:06;;;;;;;227.60;58.00;;;1.80;99.90;;;;;;5032611;28;20492;-75
2020/12/06 05:16:37;;;;;;;230.30;56.53;;;1.80;99.90;;;;;;5030588;28;20057;-75
2020/12/06 05:19:05;;;;;;;251.13;58.80;;;1.80;99.90;;;;;;5031664;28;20117;-75
2020/12/06 05:21:34;;;;;;;252.20;58.47;;;1.80;99.90;;;;;;5031565;28;20119;-75
2020/12/06 05:24:02;;;;;;;339.23;63.67;;;1.80;99.90;;;;;;5031291;28;20113;-75
2020/12/06 05:26:29;;;;;;;285.63;62.45;;;1.80;99.90;;;;;;5031051;28;20081;-75
2020/12/06 05:28:56;;;;;;;355.65;64.82;;;1.80;99.90;;;;;;5031149;28;20120;-76
2020/12/06 05:31:24;;;;;;;245.32;57.60;;;1.80;99.90;;;;;;5030225;28;20508;-74
2020/12/06 05:33:51;;;;;;;817.50;86.30;;;1.80;99.90;;;;;;5030626;28;20050;-74
2020/12/06 05:36:17;;;;;;;346.50;60.03;;;1.90;99.90;;;;;;5030756;28;20124;-74
2020/12/06 05:38:44;;;;;;;545.53;65.32;;;1.90;99.90;;;;;;5030904;28;20188;-74
2020/12/06 05:41:10;;;;;;;398.80;56.75;;;1.90;99.90;;;;;;5031005;28;20457;-75
2020/12/06 05:43:38;;;;;;;288.15;48.38;;;1.90;99.90;;;;;;5031549;28;20045;-80
2020/12/06 05:46:08;;;;;;;367.85;53.92;;;1.90;99.90;;;;;;5016607;28;20115;-77
2020/12/06 05:48:36;;;;;;;345.10;54.45;;;1.80;99.90;;;;;;5030966;28;20088;-74
2020/12/06 05:51:03;;;;;;;274.50;51.83;;;1.80;99.90;;;;;;5013471;28;20076;-75
2020/12/06 05:53:30;;;;;;;293.60;51.72;;;1.80;99.90;;;;;;5030896;28;20054;-74
2020/12/06 05:56:17;;;;;;;219.68;48.40;;;1.80;99.90;;;;;;5030209;28;20975;-76
2020/12/06 05:58:45;;;;;;;307.95;52.92;;;1.80;99.90;;;;;;5026885;28;20045;-75
2020/12/06 06:01:13;;;;;;;265.90;53.10;;;1.70;99.90;;;;;;5029789;28;20563;-75
2020/12/06 06:03:46;;;;;;;187.25;46.13;;;1.70;99.90;;;;;;5030146;28;20050;-75
2020/12/06 06:06:35;;;;;;;255.57;53.22;;;1.70;99.90;;;;;;5030040;28;20463;-76
2020/12/06 06:09:03;;;;;;;216.30;51.25;;;1.70;99.90;;;;;;5012422;28;20084;-76
2020/12/06 06:11:31;;;;;;;190.15;48.78;;;1.70;99.90;;;;;;5030032;28;20049;-74
2020/12/06 06:14:02;;;;;;;300.70;54.30;;;1.70;99.90;;;;;;5030728;28;20129;-75
2020/12/06 06:16:31;;;;;;;159.63;39.65;;;1.60;99.90;;;;;;5029346;28;20050;-75
2020/12/06 06:19:01;;;;;;;243.35;53.03;;;1.60;99.90;;;;;;5030241;28;20318;-76
2020/12/06 06:21:42;;;;;;;259.02;55.28;;;1.60;99.90;;;;;;5030364;28;20401;-75
2020/12/06 06:24:13;;;;;;;273.27;56.00;;;1.70;99.90;;;;;;5018646;28;20049;-75
2020/12/06 06:26:42;;;;;;;255.00;54.05;;;1.60;99.90;;;;;;5030029;28;20406;-75
2020/12/06 06:29:16;;;;;;;269.85;54.78;;;1.70;99.90;;;;;;5030095;28;20078;-76
2020/12/06 06:31:47;;;;;;;248.05;54.05;;;1.60;99.90;;;;;;5028682;28;20045;-74
2020/12/06 06:34:14;;;;;;;277.67;55.42;;;1.60;99.90;;;;;;5016685;28;20122;-74
2020/12/06 06:36:44;;;;;;;256.52;53.25;;;1.60;99.90;;;;;;5029650;28;20053;-75
2020/12/06 06:39:20;;;;;;;241.35;47.83;;;1.60;99.90;;;;;;5029549;28;20055;-78
2020/12/06 06:41:58;;;;;;;288.02;51.10;;;1.60;99.90;;;;;;5030165;28;20429;-74
2020/12/06 06:44:26;;;;;;;294.42;55.28;;;1.60;99.90;;;;;;5016767;28;20049;-75
2020/12/06 06:47:00;;;;;;;337.23;56.75;;;1.60;99.90;;;;;;5028867;28;20049;-74
2020/12/06 06:49:27;;;;;;;284.48;55.90;;;1.50;99.90;;;;;;5012193;28;20080;-73
2020/12/06 06:51:54;;;;;;;339.45;62.13;;;1.60;99.90;;;;;;5029790;28;20124;-74
2020/12/06 06:54:27;;;;;;;289.88;51.47;;;1.60;99.90;;;;;;5028901;28;20179;-73
2020/12/06 06:56:55;;;;;;;305.95;56.83;;;1.60;99.90;;;;;;5029049;28;20128;-75
2020/12/06 06:59:51;;;;;;;314.42;58.90;;;1.60;99.90;;;;;;5029425;28;20125;-75
2020/12/06 07:02:41;;;;;;;363.63;57.78;;;1.50;99.90;;;;;;5029219;28;20112;-74
2020/12/06 07:05:20;;;;;;;439.00;60.35;;;1.50;99.90;;;;;;5029688;28;20152;-74
2020/12/06 07:07:51;;;;;;;402.73;57.35;;;1.50;99.90;;;;;;5029130;28;20435;-74
2020/12/06 07:10:19;;;;;;;375.25;56.70;;;1.60;99.90;;;;;;5025828;28;20448;-75
2020/12/06 07:12:46;;;;;;;388.83;62.40;;;1.60;99.90;;;;;;5021683;28;20112;-75
2020/12/06 07:15:13;;;;;;;465.65;60.88;;;1.50;99.90;;;;;;5028293;28;20080;-75
2020/12/06 07:17:40;;;;;;;377.42;56.83;;;1.60;99.90;;;;;;5023772;28;20042;-75
2020/12/06 07:20:09;;;;;;;368.25;56.58;;;1.60;99.90;;;;;;5028875;28;20132;-75
2020/12/06 07:22:35;;;;;;;394.75;56.97;;;1.70;99.90;;;;;;5029798;28;20080;-75
2020/12/06 07:25:04;;;;;;;500.85;61.33;;;1.70;99.90;;;;;;5028956;28;20430;-75
2020/12/06 07:27:32;;;;;;;480.60;61.22;;;1.60;99.90;;;;;;5024077;28;20077;-75
2020/12/06 07:30:00;;;;;;;677.63;69.68;;;1.60;99.90;;;;;;5027905;28;20484;-75
2020/12/06 07:32:26;;;;;;;463.67;62.60;;;1.60;99.90;;;;;;5028192;28;20239;-74
2020/12/06 07:34:53;;;;;;;802.05;75.35;;;1.60;99.90;;;;;;5029139;28;20335;-74
2020/12/06 07:37:21;;;;;;;553.40;62.38;;;1.60;99.90;;;;;;5028081;28;20148;-74
2020/12/06 07:39:49;;;;;;;518.85;60.88;;;1.60;99.90;;;;;;5021263;28;20129;-75
2020/12/06 07:42:27;;;;;;;701.08;69.25;;;1.70;99.90;;;;;;5028394;28;20085;-73
2020/12/06 07:44:56;;;;;;;757.80;75.18;;;1.60;99.90;;;;;;5025889;28;20045;-75
2020/12/06 07:47:24;;;;;;;488.70;54.22;;;1.60;99.90;;;;;;5027222;28;20046;-75
2020/12/06 07:49:55;;;;;;;535.22;62.28;;;1.60;99.90;;;;;;5026653;28;20132;-75
2020/12/06 07:52:33;;;;;;;526.65;60.58;;;1.60;99.90;;;;;;5027704;28;20069;-75
2020/12/06 07:55:06;;;;;;;539.85;53.00;;;1.60;99.90;;;;;;5010085;28;20053;-75
2020/12/06 07:57:38;;;;;;;;;;;1.60;99.90;;;;;;5029211;28;20045;-74
2020/12/06 08:00:12;;;;;;;287.58;38.47;;;1.60;99.90;;;;;;5025856;28;20315;-74
2020/12/06 08:02:44;;;;;;;727.50;65.75;;;1.70;99.90;;;;;;5023679;28;20148;-74
2020/12/06 08:05:18;;;;;;;705.50;66.18;;;1.60;99.90;;;;;;5028102;28;20046;-74
2020/12/06 08:07:47;;;;;;;1255.80;91.32;;;1.70;99.90;;;;;;5027110;28;20088;-74
2020/12/06 08:10:16;;;;;;;733.22;62.60;;;1.70;99.90;;;;;;5028034;28;20083;-73
2020/12/06 08:12:45;;;;;;;1460.82;109.15;;;1.60;99.90;;;;;;5010493;28;20080;-73
2020/12/06 08:15:12;;;;;;;1039.05;77.47;;;1.60;99.90;;;;;;5027564;28;20092;-74
2020/12/06 08:17:49;;;;;;;623.38;58.20;;;1.60;99.90;;;;;;5026107;28;20121;-76
2020/12/06 08:20:21;;;;;;;906.60;74.90;;;1.60;99.90;;;;;;5020318;28;20412;-74
2020/12/06 08:22:53;;;;;;;770.78;68.00;;;1.60;99.90;;;;;;5028406;28;20137;-73
2020/12/06 08:25:22;;;;;;;511.65;53.63;;;1.70;99.90;;;;;;5013026;28;20073;-73
2020/12/06 08:27:50;;;;;;;420.33;54.95;;;1.70;99.90;;;;;;5016454;28;20058;-74
2020/12/06 08:30:19;;;;;;;394.95;54.47;;;1.70;99.90;;;;;;5023748;28;20133;-73
2020/12/06 08:32:55;;;;;;;363.25;55.50;;;1.70;99.90;;;;;;5016421;28;20455;-73
2020/12/06 08:35:42;;;;;;;306.67;56.17;;;1.80;99.90;;;;;;5027892;28;20132;-73
2020/12/06 08:38:22;;;;;;;306.67;57.60;;;1.80;99.90;;;;;;5027996;28;20435;-73
2020/12/06 08:41:11;;;;;;;293.30;59.42;;;1.80;99.90;;;;;;5027289;28;20077;-72
2020/12/06 08:43:47;;;;;;;267.42;55.10;;;1.80;99.90;;;;;;5017224;28;20054;-74
2020/12/06 08:46:16;;;;;;;205.60;48.35;;;1.90;99.90;;;;;;5027300;28;20042;-73
2020/12/06 08:48:43;;;;;;;216.80;48.95;;;2.00;99.90;;;;;;5027904;28;20046;-73
2020/12/06 08:51:33;;;;;;;210.48;49.70;;;2.00;99.90;;;;;;5028579;28;20056;-75
2020/12/06 08:54:05;;;;;;;151.20;43.03;;;2.10;99.90;;;;;;5028098;28;20087;-76
2020/12/06 08:56:36;;;;;;;128.07;32.33;;;2.10;99.90;;;;;;5021625;28;20083;-74
2020/12/06 08:59:09;;;;;;;157.73;41.67;;;2.10;99.90;;;;;;5024005;28;20041;-75
2020/12/06 09:01:53;;;;;;;140.38;38.95;;;2.20;99.90;;;;;;5013065;28;20076;-74
2020/12/06 09:04:20;;;;;;;123.53;37.53;;;2.20;99.90;;;;;;5029986;28;20049;-73
2020/12/06 09:07:38;;;;;;;131.13;37.45;;;2.10;99.90;;;;;;5031106;28;20053;-73
2020/12/06 09:10:55;;;;;;;123.10;37.30;;;2.10;99.90;;;;;;4914048;29;20051;-73
2020/12/06 09:13:51;;;;;;;127.97;37.97;;;2.10;99.90;;;;;;4928809;29;20107;-74
2020/12/06 09:17:00;;;;;;;147.10;39.22;;;2.10;99.90;;;;;;4929137;29;20067;-73
2020/12/06 09:19:47;;;;;;;125.88;38.40;;;2.10;99.90;;;;;;4945403;28;20054;-74
2020/12/06 09:22:33;;;;;;;141.80;40.70;;;2.20;99.90;;;;;;4969009;28;20505;-73
2020/12/06 09:28:28;;;;;;;119.57;37.40;;;2.40;99.90;;;;;;5016260;28;20037;-74
2020/12/06 09:31:27;;;;;;;107.53;34.85;;;2.40;99.90;;;;;;5047120;28;20049;-74
2020/12/06 09:34:07;;;;;;;116.25;36.60;;;2.30;99.90;;;;;;5006377;28;20053;-74
2020/12/06 09:36:59;;;;;;;117.53;36.75;;;2.30;99.90;;;;;;5004668;28;20559;-74
2020/12/06 09:39:27;;;;;;;108.13;34.55;;;2.30;99.90;;;;;;4997612;28;20112;-74
2020/12/06 09:42:22;;;;;;;119.47;34.80;;;2.30;99.90;;;;;;5007681;28;20049;-75
2020/12/06 09:45:17;;;;;;;90.55;30.67;;;2.30;99.90;;;;;;4973834;28;20484;-73
2020/12/06 09:47:46;;;;;;;90.03;29.95;;;2.30;99.90;;;;;;4993571;28;20104;-74
2020/12/06 09:50:17;;;;;;;86.75;30.40;;;2.30;99.90;;;;;;5008480;28;20129;-76
2020/12/06 09:52:47;;;;;;;78.10;28.05;;;2.30;99.90;;;;;;5009201;28;20053;-74
2020/12/06 09:55:35;;;;;;;74.20;26.42;;;2.30;99.90;;;;;;5003374;28;20059;-76
2020/12/06 09:58:11;;;;;;;72.53;27.55;;;2.20;99.90;;;;;;4995859;28;20050;-74
2020/12/06 10:00:45;;;;;;;74.25;28.63;;;2.20;99.90;;;;;;5004772;28;20054;-74
2020/12/06 10:03:23;;;;;;;81.03;30.58;;;2.30;99.90;;;;;;5000973;28;20130;-75
2020/12/06 10:05:53;;;;;;;76.93;29.05;;;2.30;99.90;;;;;;4987168;28;20133;-75
2020/12/06 10:08:52;;;;;;;69.43;28.17;;;2.40;99.90;;;;;;5004786;28;20149;-75
2020/12/06 10:11:28;;;;;;;60.25;24.88;;;2.30;99.90;;;;;;5029329;28;20048;-74
2020/12/06 10:13:55;;;;;;;62.88;25.15;;;2.20;99.90;;;;;;5050943;28;20218;-77
2020/12/06 10:16:22;;;;;;;65.13;26.42;;;2.20;99.90;;;;;;5047521;28;20049;-74
2020/12/06 10:18:49;;;;;;;69.57;26.60;;;2.20;99.90;;;;;;5050025;28;20036;-74
2020/12/06 10:21:16;;;;;;;65.78;26.10;;;2.20;99.90;;;;;;5030478;28;20564;-74
2020/12/06 10:23:43;;;;;;;70.20;26.55;;;2.20;99.90;;;;;;5030125;28;20546;-74
2020/12/06 10:26:11;;;;;;;64.15;25.92;;;2.20;99.90;;;;;;5028950;28;20458;-74
2020/12/06 10:28:37;;;;;;;65.00;26.60;;;2.20;99.90;;;;;;5029840;28;20051;-75
2020/12/06 10:31:04;;;;;;;67.72;27.30;;;2.20;99.90;;;;;;5029689;28;20056;-75
2020/12/06 10:33:30;;;;;;;62.83;27.15;;;2.20;99.90;;;;;;5029180;28;20042;-75
2020/12/06 10:35:56;;;;;;;64.45;29.70;;;2.20;99.90;;;;;;5025111;28;20280;-73
2020/12/06 10:38:23;;;;;;;72.20;30.40;;;2.30;99.90;;;;;;5023214;28;20057;-73
2020/12/06 10:40:50;;;;;;;60.17;28.10;;;2.30;99.90;;;;;;5030067;28;20042;-74
2020/12/06 10:43:16;;;;;;;63.78;29.35;;;2.40;99.90;;;;;;5030573;28;20061;-74
2020/12/06 10:45:42;;;;;;;54.05;26.33;;;2.40;99.90;;;;;;5014789;28;20052;-75
2020/12/06 10:48:09;;;;;;;54.83;25.25;;;2.50;99.90;;;;;;5019262;28;20445;-76
2020/12/06 10:50:36;;;;;;;61.05;27.95;;;2.60;99.90;;;;;;5029837;28;20049;-75
2020/12/06 10:53:03;;;;;;;53.60;26.20;;;2.50;99.90;;;;;;5029874;28;20147;-76
2020/12/06 10:55:29;;;;;;;54.40;27.48;;;2.50;99.90;;;;;;5029258;28;20119;-74
2020/12/06 10:57:55;;;;;;;51.08;25.55;;;2.60;99.90;;;;;;5019620;28;20489;-73
2020/12/06 11:00:22;;;;;;;48.55;25.50;;;2.60;99.90;;;;;;5029062;28;20457;-75
2020/12/06 11:02:48;;;;;;;54.30;27.00;;;2.70;99.90;;;;;;5011959;28;20072;-74
2020/12/06 11:05:15;;;;;;;45.58;24.25;;;2.70;99.90;;;;;;5029453;28;20045;-74
2020/12/06 11:07:41;;;;;;;45.70;23.95;;;2.80;99.90;;;;;;5002618;28;20116;-74
2020/12/06 11:10:08;;;;;;;46.72;24.52;;;2.80;99.90;;;;;;5019747;28;20045;-75
2020/12/06 11:12:38;;;;;;;40.50;22.90;;;2.90;99.90;;;;;;5006256;28;20052;-73
2020/12/06 11:15:05;;;;;;;35.67;20.95;;;2.80;99.90;;;;;;5027554;28;20049;-74
2020/12/06 11:17:31;;;;;;;40.28;22.17;;;2.80;99.90;;;;;;5027466;28;20091;-74
2020/12/06 11:19:58;;;;;;;43.47;23.63;;;2.90;99.90;;;;;;5029059;28;20112;-74
2020/12/06 11:22:25;;;;;;;34.55;20.40;;;2.90;99.90;;;;;;5029197;28;20053;-74
2020/12/06 11:24:52;;;;;;;38.05;21.27;;;2.90;99.90;;;;;;5029250;28;20050;-75
2020/12/06 11:27:19;;;;;;;34.35;20.02;;;2.90;99.90;;;;;;5006963;28;20049;-74
2020/12/06 11:29:46;;;;;;;33.22;18.38;;;2.90;99.90;;;;;;5029190;28;20049;-76
2020/12/06 11:32:13;;;;;;;33.05;18.55;;;2.90;99.90;;;;;;5028167;28;20076;-74
2020/12/06 11:34:40;;;;;;;28.10;18.00;;;2.90;99.90;;;;;;5029610;28;20125;-76
2020/12/06 11:37:07;;;;;;;25.73;15.80;;;2.90;99.90;;;;;;5024076;28;20046;-74
2020/12/06 11:39:34;;;;;;;26.95;16.75;;;2.90;99.90;;;;;;5029629;28;20049;-74
2020/12/06 11:42:02;;;;;;;27.80;15.02;;;2.90;99.90;;;;;;5028700;28;20121;-75
2020/12/06 11:44:29;;;;;;;23.38;14.15;;;2.90;99.90;;;;;;5029542;28;20441;-74
2020/12/06 11:46:55;;;;;;;21.20;13.82;;;2.90;99.90;;;;;;5026655;28;20137;-74
2020/12/06 11:49:22;;;;;;;24.15;15.18;;;3.00;99.90;;;;;;5029125;28;20136;-75
2020/12/06 11:51:48;;;;;;;25.42;15.80;;;3.00;99.90;;;;;;5029200;28;20157;-74
2020/12/06 11:54:16;;;;;;;27.33;16.63;;;3.20;99.90;;;;;;5022446;28;20057;-75
2020/12/06 11:56:49;;;;;;;24.17;15.77;;;3.20;99.90;;;;;;5028856;28;20057;-74
2020/12/06 11:59:16;;;;;;;19.35;13.43;;;3.20;99.90;;;;;;5026880;28;20053;-75
2020/12/06 12:01:43;;;;;;;23.33;13.80;;;3.30;99.90;;;;;;5028159;28;20467;-74
2020/12/06 12:04:10;;;;;;;19.10;12.02;;;3.30;99.90;;;;;;5025299;28;20493;-74
2020/12/06 12:06:37;;;;;;;16.73;11.45;;;3.30;99.90;;;;;;5029016;28;20087;-80
2020/12/06 12:09:03;;;;;;;18.33;11.52;;;3.40;99.90;;;;;;5019133;28;20476;-75
2020/12/06 12:11:30;;;;;;;20.70;12.65;;;3.30;99.90;;;;;;5023531;28;20144;-77
2020/12/06 12:13:56;;;;;;;17.90;11.95;;;3.40;99.90;;;;;;5029129;28;20103;-75
2020/12/06 12:16:23;;;;;;;18.27;12.43;;;3.50;99.90;;;;;;5010926;28;20053;-75
2020/12/06 12:18:49;;;;;;;15.70;10.63;;;3.60;99.90;;;;;;5021586;28;20475;-75
2020/12/06 12:21:15;;;;;;;16.73;11.75;;;3.60;99.90;;;;;;5028975;28;20407;-75
2020/12/06 12:23:42;;;;;;;15.13;10.90;;;3.70;99.90;;;;;;5028358;28;20107;-75
2020/12/06 12:26:08;;;;;;;16.05;10.35;;;3.70;99.90;;;;;;5027754;28;20143;-75
2020/12/06 12:28:35;;;;;;;14.70;11.00;;;3.70;99.90;;;;;;5023927;28;20561;-74
2020/12/06 12:31:04;;;;;;;16.00;10.75;;;3.60;99.90;;;;;;5021251;28;20387;-73
2020/12/06 12:33:32;;;;;;;14.27;11.05;;;3.70;99.90;;;;;;5028011;28;20571;-75
2020/12/06 12:35:59;;;;;;;13.65;10.38;;;3.70;99.90;;;;;;5031342;28;20053;-74
2020/12/06 12:38:25;;;;;;;16.38;10.95;;;3.70;99.90;;;;;;5031607;28;20349;-75
2020/12/06 12:40:52;;;;;;;16.40;11.40;;;3.70;99.90;;;;;;5017905;28;20406;-75
2020/12/06 12:43:20;;;;;;;17.20;12.60;;;3.70;99.90;;;;;;5022316;28;20156;-74
2020/12/06 12:45:49;;;;;;;16.02;11.70;;;3.90;99.90;;;;;;5029611;28;20396;-74
2020/12/06 12:48:15;;;;;;;14.52;10.88;;;4.00;99.90;;;;;;5012179;28;20133;-74